Portada
METAR-TAF:

METAR-TAF

Aeropuertos :

Wick, Escocia

latitud: 58-27N, longitud: 003-05W, altitud: 39 m

Observación

El informe se hizo hace 37 minutos, a las 08:50 UTC
Viento 4 kt del noroeste
Temperatura 11°C
Humedad 87%
Presión 1018 hPa
Visibilidad 10 km o más

METAR: EGPC 180850Z AUTO 32004KT 9999 OVC006/// 11/09 Q1018

Hora: 10:27 (09:27 UTC)

Pronóstico

El informe se hizo hace 1 hora y 31 minutos, a las 07:56 UTC
Pronóstico válido del 18 a las 09 UTC al 18 a las 18 UTC
Viento 8 kt del noroeste
Visibilidad 10 km o más
Cielo nuboso a una altura de 600 ft
Evolucionando progresivamente
del 18 a las 09 UTC al 18 a las 12 UTC
Cielo nuboso a una altura de 1200 ft
Temporalmente
del 18 a las 09 UTC al 18 a las 12 UTC
Visibilidad: 8000 m
Evolucionando progresivamente
del 18 a las 12 UTC al 18 a las 15 UTC
Nubes dispersas a una altura de 1600 ft

TAF: EGPC 180756Z 1809/1818 31008KT 9999 BKN006 BECMG 1809/1812 BKN012 TEMPO 1809/1812 8000 BECMG 1812/1815 SCT016

Observaciones y pronósticos meteorológicos de más de 4000 aeropuertos (mensajes METAR y TAF).

Los puntos amarillos y rojos representan las estaciones disponibles.

Ponga el ratón en el punto deseado para ver el nombre de la estación.

Haga clic para ver las observaciones y los pronósticos meteorológicos.

Para cambiar el mapa : haga clic en los botones verdes con una cruz de color negro para hacer un zoom, en el botón verde con un guión para alejar o en las flechas verdes para mapas adyacentes.


METAR-TAF: